createdAt,value
2022-11-23T00:13:45.083Z,96997.69
2022-11-23T01:55:11.428Z,96977.03
2022-11-23T02:15:15.031Z,96980.00
2022-11-23T02:35:33.129Z,96998.34
2022-11-23T03:15:52.624Z,97006.53
2022-11-23T03:35:55.240Z,96992.19
2022-11-23T04:36:26.758Z,96971.78
2022-11-23T04:56:31.449Z,96972.28
2022-11-23T05:16:34.180Z,96990.37
2022-11-23T05:36:42.076Z,96982.28
2022-11-23T05:56:45.914Z,96974.31
2022-11-23T06:16:49.451Z,96985.63
2022-11-23T06:36:52.143Z,97005.50
2022-11-23T06:56:54.828Z,97020.31
2022-11-23T07:16:57.738Z,97033.53
2022-11-23T07:37:02.123Z,97038.47
2022-11-23T07:57:05.082Z,97042.72
2022-11-23T08:17:07.671Z,97054.62
2022-11-23T08:37:10.300Z,97048.50
2022-11-23T08:57:13.023Z,97048.53
2022-11-23T09:17:15.497Z,97037.25
2022-11-23T09:37:18.189Z,97019.09
2022-11-23T09:57:20.923Z,97024.56
2022-11-23T10:17:23.734Z,97006.22
2022-11-23T10:37:26.442Z,96989.66
2022-11-23T10:57:29.168Z,96980.38
2022-11-23T11:17:31.659Z,96963.94
2022-11-23T11:37:34.310Z,96955.62
2022-11-23T11:57:37.248Z,96954.44
2022-11-23T12:17:39.709Z,96955.94
2022-11-23T12:37:42.565Z,96959.37
2022-11-23T12:57:45.015Z,96972.47
2022-11-23T13:17:47.708Z,96990.47
2022-11-23T13:37:50.329Z,97005.81
2022-11-23T13:57:53.014Z,97004.63
2022-11-23T14:17:56.375Z,96997.22
2022-11-23T14:37:58.821Z,97014.97
2022-11-23T14:58:02.620Z,97008.34
2022-11-23T15:18:05.197Z,97030.09
2022-11-23T15:38:08.126Z,97044.28
2022-11-23T15:58:11.351Z,97049.34
2022-11-23T16:18:13.817Z,97057.38
2022-11-23T16:38:16.819Z,97061.16
2022-11-23T16:58:19.394Z,97078.34
2022-11-23T17:18:23.360Z,97083.91
2022-11-23T17:38:43.153Z,97084.88
2022-11-23T17:58:47.229Z,97059.66
2022-11-23T18:39:07.416Z,97092.34
2022-11-23T18:59:28.769Z,97101.31
2022-11-23T19:19:33.796Z,97111.78
2022-11-23T19:39:38.087Z,97086.41
2022-11-23T19:59:41.168Z,97078.91
2022-11-23T20:19:43.757Z,97081.66
2022-11-23T20:39:46.373Z,97111.44
2022-11-23T20:59:49.174Z,97127.19
2022-11-23T21:19:52.047Z,97133.66
2022-11-23T22:00:18.661Z,97148.38
2022-11-23T22:20:25.500Z,97153.59
2022-11-23T22:40:33.943Z,97150.44
2022-11-23T23:00:37.615Z,97148.81
2022-11-23T23:20:40.630Z,97148.47
2022-11-23T23:40:44.495Z,97150.41
